Time;durP1;ratioP1;P1;durP2;ratioP2;P2;SDS_P1;SDS_P2;PMS_P1;PMS_P2;Temp;Humidity;BMP_temperature;BMP_pressure;BME280_temperature;BME280_humidity;BME280_pressure;Samples;Min_cycle;Max_cycle;Signal;HPM_P1;HPM_P2
2023/05/26 00:02:14;;;;;;;45.90;27.30;;;;;;;;;;6299162;28;20052;-63
2023/05/26 00:05:16;;;;;;;43.08;25.73;;;;;;;;;;6299233;28;20054;-60
2023/05/26 00:08:17;;;;;;;45.97;26.83;;;;;;;;;;6299924;28;20053;-61
2023/05/26 00:11:18;;;;;;;44.35;26.00;;;;;;;;;;6297831;28;20051;-62
2023/05/26 00:14:18;;;;;;;45.03;26.50;;;;;;;;;;6297561;28;20516;-61
2023/05/26 00:17:20;;;;;;;43.53;25.60;;;;;;;;;;6304187;28;20577;-59
2023/05/26 00:20:23;;;;;;;44.67;26.43;;;;;;;;;;6296459;28;20143;-63
2023/05/26 00:23:23;;;;;;;44.95;26.15;;;;;;;;;;6297407;28;20049;-62
2023/05/26 00:26:25;;;;;;;44.40;26.65;;;;;;;;;;6298481;28;20422;-62
2023/05/26 00:29:26;;;;;;;44.47;27.05;;;;;;;;;;6296611;28;20127;-59
2023/05/26 00:32:27;;;;;;;47.70;27.35;;;;;;;;;;6298509;28;20517;-62
2023/05/26 00:35:27;;;;;;;43.60;26.25;;;;;;;;;;6298490;28;20483;-60
2023/05/26 00:38:28;;;;;;;44.85;25.73;;;;;;;;;;6293345;28;20048;-61
2023/05/26 00:41:29;;;;;;;45.15;25.48;;;;;;;;;;6297854;28;20047;-63
2023/05/26 00:44:29;;;;;;;42.35;25.08;;;;;;;;;;6297172;28;20048;-62
2023/05/26 00:47:30;;;;;;;43.10;25.13;;;;;;;;;;6297916;28;20047;-61
2023/05/26 00:50:30;;;;;;;45.53;26.48;;;;;;;;;;6299040;28;20041;-63
2023/05/26 00:53:31;;;;;;;41.83;25.25;;;;;;;;;;6297798;28;20511;-62
2023/05/26 00:56:34;;;;;;;42.25;25.63;;;;;;;;;;6300625;28;20052;-58
2023/05/26 00:59:35;;;;;;;41.10;25.20;;;;;;;;;;6303810;28;20044;-60
2023/05/26 01:02:37;;;;;;;47.35;26.25;;;;;;;;;;6297429;28;20059;-62
2023/05/26 01:05:38;;;;;;;51.35;27.45;;;;;;;;;;6297169;28;20076;-60
2023/05/26 01:08:39;;;;;;;46.95;27.77;;;;;;;;;;6297780;28;20409;-61
2023/05/26 01:12:13;;;;;;;42.20;26.20;;;;;;;;;;6295567;28;20044;-61
2023/05/26 01:15:19;;;;;;;42.22;26.20;;;;;;;;;;6280913;28;20040;-58
2023/05/26 01:18:29;;;;;;;43.40;25.48;;;;;;;;;;6298382;28;20093;-60
2023/05/26 01:21:33;;;;;;;46.50;28.13;;;;;;;;;;6306829;28;20040;-62
2023/05/26 01:24:43;;;;;;;45.80;27.33;;;;;;;;;;6312048;28;20040;-62
2023/05/26 01:28:12;;;;;;;42.88;25.92;;;;;;;;;;6297034;28;20407;-60
2023/05/26 01:31:14;;;;;;;44.00;25.40;;;;;;;;;;6293448;28;20051;-62
2023/05/26 01:34:14;;;;;;;42.58;25.15;;;;;;;;;;6296109;28;20502;-61
2023/05/26 01:37:15;;;;;;;45.10;25.15;;;;;;;;;;6292720;28;20066;-62
2023/05/26 01:40:16;;;;;;;45.92;26.67;;;;;;;;;;6297087;28;20037;-61
2023/05/26 01:43:36;;;;;;;44.67;26.08;;;;;;;;;;6298249;28;20398;-60
2023/05/26 01:46:51;;;;;;;46.63;25.77;;;;;;;;;;6295992;28;20093;-61
2023/05/26 01:49:52;;;;;;;44.78;25.77;;;;;;;;;;6297104;28;20058;-61
2023/05/26 01:52:57;;;;;;;47.90;27.85;;;;;;;;;;6295315;28;20044;-62
2023/05/26 01:55:59;;;;;;;42.20;25.83;;;;;;;;;;6292344;28;20047;-60
2023/05/26 01:59:01;;;;;;;45.03;26.15;;;;;;;;;;6295018;28;20067;-63
2023/05/26 02:02:02;;;;;;;;;;;;;;;;;;6296641;28;20101;-58
2023/05/26 02:05:02;;;;;;;42.58;24.27;;;;;;;;;;6296734;28;19924;-60
2023/05/26 02:08:03;;;;;;;45.03;26.48;;;;;;;;;;6295228;28;20058;-61
2023/05/26 02:11:03;;;;;;;45.03;26.55;;;;;;;;;;6295662;28;20071;-62
2023/05/26 02:14:04;;;;;;;52.03;27.05;;;;;;;;;;6278630;28;20609;-62
2023/05/26 02:17:05;;;;;;;46.33;26.80;;;;;;;;;;6296793;28;20048;-62
2023/05/26 02:20:08;;;;;;;45.45;26.17;;;;;;;;;;6292867;28;20052;-58
2023/05/26 02:23:08;;;;;;;43.65;25.23;;;;;;;;;;6295131;28;20491;-61
2023/05/26 02:26:09;;;;;;;44.90;26.20;;;;;;;;;;6293760;28;20045;-62
2023/05/26 02:29:11;;;;;;;129.10;29.33;;;;;;;;;;6294051;28;20057;-62
2023/05/26 02:32:12;;;;;;;107.03;28.33;;;;;;;;;;6293233;28;20083;-61
2023/05/26 02:35:12;;;;;;;46.25;26.02;;;;;;;;;;6296350;28;20049;-61
2023/05/26 02:38:13;;;;;;;45.60;25.85;;;;;;;;;;6294232;28;20048;-60
2023/05/26 02:41:13;;;;;;;43.60;24.95;;;;;;;;;;6295578;28;20044;-63
2023/05/26 02:44:14;;;;;;;47.08;25.92;;;;;;;;;;6296643;28;20124;-62
2023/05/26 02:47:14;;;;;;;44.08;26.30;;;;;;;;;;6299157;28;20049;-63
2023/05/26 02:50:17;;;;;;;48.58;27.30;;;;;;;;;;6299305;28;20125;-61
2023/05/26 02:53:18;;;;;;;45.40;25.58;;;;;;;;;;6299567;28;20058;-60
2023/05/26 02:56:20;;;;;;;84.63;28.50;;;;;;;;;;6296026;28;20048;-58
2023/05/26 02:59:21;;;;;;;46.40;24.70;;;;;;;;;;6301882;28;20296;-62
2023/05/26 03:02:21;;;;;;;61.33;27.27;;;;;;;;;;6301154;28;20047;-62
2023/05/26 03:05:22;;;;;;;50.83;26.88;;;;;;;;;;6300403;28;20090;-62
2023/05/26 03:08:23;;;;;;;43.53;24.67;;;;;;;;;;6305973;28;20085;-62
2023/05/26 03:11:23;;;;;;;46.95;25.98;;;;;;;;;;6298997;28;20041;-61
2023/05/26 03:14:25;;;;;;;43.50;24.83;;;;;;;;;;6300917;28;20147;-63
2023/05/26 03:17:25;;;;;;;46.50;25.10;;;;;;;;;;6292243;28;20486;-61
2023/05/26 03:20:26;;;;;;;45.45;25.65;;;;;;;;;;6314558;28;20054;-60
2023/05/26 03:23:27;;;;;;;45.03;24.50;;;;;;;;;;6305780;28;20093;-62
2023/05/26 03:26:28;;;;;;;40.30;24.15;;;;;;;;;;6297500;28;20112;-62
2023/05/26 03:29:30;;;;;;;37.78;24.23;;;;;;;;;;6297159;28;20048;-62
2023/05/26 03:32:31;;;;;;;;;;;;;;;;;;6300697;28;20052;-59
2023/05/26 03:35:31;;;;;;;40.30;23.83;;;;;;;;;;6298374;28;19969;-56
2023/05/26 03:38:32;;;;;;;38.83;23.73;;;;;;;;;;6298235;28;20061;-61
2023/05/26 03:41:33;;;;;;;44.60;24.88;;;;;;;;;;6296906;28;20047;-62
2023/05/26 03:44:34;;;;;;;39.33;22.77;;;;;;;;;;6300883;28;20044;-61
2023/05/26 03:47:35;;;;;;;40.83;24.08;;;;;;;;;;6299186;28;20086;-58
2023/05/26 03:50:36;;;;;;;44.65;25.00;;;;;;;;;;6299473;28;21383;-62
2023/05/26 03:53:37;;;;;;;43.30;24.20;;;;;;;;;;6294931;28;20052;-62
2023/05/26 03:56:37;;;;;;;45.25;25.20;;;;;;;;;;6297299;28;20054;-59
2023/05/26 03:59:38;;;;;;;43.50;25.35;;;;;;;;;;6293831;28;20411;-61
2023/05/26 04:02:39;;;;;;;41.03;24.98;;;;;;;;;;6294942;28;20048;-56
2023/05/26 04:05:39;;;;;;;41.17;23.52;;;;;;;;;;6297968;28;20044;-62
2023/05/26 04:08:40;;;;;;;41.83;24.60;;;;;;;;;;6298848;28;20441;-61
2023/05/26 04:11:40;;;;;;;47.22;27.40;;;;;;;;;;6297926;28;20405;-62
2023/05/26 04:14:41;;;;;;;47.65;27.88;;;;;;;;;;6295551;28;20924;-62
2023/05/26 04:17:41;;;;;;;50.03;27.33;;;;;;;;;;6290716;28;20040;-61
2023/05/26 04:20:43;;;;;;;52.10;30.00;;;;;;;;;;6298422;28;20388;-58
2023/05/26 04:23:47;;;;;;;55.47;29.95;;;;;;;;;;6295226;28;20067;-62
2023/05/26 04:26:48;;;;;;;50.38;28.25;;;;;;;;;;6302193;28;20055;-59
2023/05/26 04:29:48;;;;;;;53.10;29.13;;;;;;;;;;6293741;28;20040;-61
2023/05/26 04:32:49;;;;;;;53.13;29.15;;;;;;;;;;6297877;28;20142;-62
2023/05/26 04:35:50;;;;;;;47.80;27.92;;;;;;;;;;6297612;28;20048;-63
2023/05/26 04:38:51;;;;;;;47.80;27.98;;;;;;;;;;6298289;28;20487;-62
2023/05/26 04:41:52;;;;;;;48.13;28.38;;;;;;;;;;6296299;28;20062;-64
2023/05/26 04:44:54;;;;;;;52.25;29.27;;;;;;;;;;6281983;28;20036;-59
2023/05/26 04:47:56;;;;;;;54.50;31.20;;;;;;;;;;6299156;28;20040;-63
2023/05/26 04:50:57;;;;;;;53.75;30.77;;;;;;;;;;6298195;28;20048;-61
2023/05/26 04:53:57;;;;;;;58.70;34.45;;;;;;;;;;6296573;28;20044;-64
2023/05/26 04:56:58;;;;;;;56.60;33.15;;;;;;;;;;6294442;28;20110;-62
2023/05/26 04:59:58;;;;;;;56.03;32.42;;;;;;;;;;6295438;28;20044;-59
2023/05/26 05:02:59;;;;;;;57.13;33.15;;;;;;;;;;6309211;28;20113;-62
2023/05/26 05:06:00;;;;;;;56.83;32.60;;;;;;;;;;6310547;28;20097;-62
2023/05/26 05:09:01;;;;;;;55.03;31.67;;;;;;;;;;6297255;28;20517;-62
2023/05/26 05:12:02;;;;;;;52.20;30.52;;;;;;;;;;6295010;28;20036;-62
2023/05/26 05:15:03;;;;;;;55.55;30.95;;;;;;;;;;6296379;28;20315;-64
2023/05/26 05:18:05;;;;;;;57.40;31.48;;;;;;;;;;6293166;28;20048;-61
2023/05/26 05:21:06;;;;;;;56.03;31.63;;;;;;;;;;6293677;28;20124;-61
2023/05/26 05:24:06;;;;;;;52.40;30.23;;;;;;;;;;6296284;28;20044;-62
2023/05/26 05:27:07;;;;;;;56.33;31.30;;;;;;;;;;6292044;28;20041;-63
2023/05/26 05:30:08;;;;;;;51.65;29.58;;;;;;;;;;6295523;28;20051;-63
2023/05/26 05:33:08;;;;;;;58.63;31.27;;;;;;;;;;6295301;28;20110;-62
2023/05/26 05:36:09;;;;;;;53.80;30.17;;;;;;;;;;6296686;28;20502;-63
2023/05/26 05:39:10;;;;;;;54.75;29.08;;;;;;;;;;6294528;28;20143;-62
2023/05/26 05:42:10;;;;;;;50.40;29.08;;;;;;;;;;6295542;28;20487;-61
2023/05/26 05:45:11;;;;;;;54.97;29.80;;;;;;;;;;6304340;28;20051;-61
2023/05/26 05:48:11;;;;;;;51.50;28.85;;;;;;;;;;6297206;28;20040;-62
2023/05/26 05:51:12;;;;;;;52.42;29.27;;;;;;;;;;6296900;28;20044;-61
2023/05/26 05:54:13;;;;;;;51.15;28.92;;;;;;;;;;6295543;28;20044;-63
2023/05/26 05:57:13;;;;;;;43.83;25.30;;;;;;;;;;6286168;28;20064;-58
2023/05/26 06:00:15;;;;;;;41.90;22.10;;;;;;;;;;6294530;28;20955;-63
2023/05/26 06:03:15;;;;;;;41.53;23.30;;;;;;;;;;6294114;28;20564;-58
2023/05/26 06:06:16;;;;;;;38.35;22.38;;;;;;;;;;6296933;28;20224;-62
2023/05/26 06:09:16;;;;;;;36.67;22.65;;;;;;;;;;6294015;28;20051;-61
2023/05/26 06:12:17;;;;;;;37.47;22.98;;;;;;;;;;6294899;28;20064;-62
2023/05/26 06:15:18;;;;;;;39.72;23.05;;;;;;;;;;6295186;28;20075;-62
2023/05/26 06:18:18;;;;;;;41.45;23.00;;;;;;;;;;6294550;28;20044;-63
2023/05/26 06:21:19;;;;;;;36.97;22.02;;;;;;;;;;6295148;28;20048;-62
2023/05/26 06:24:20;;;;;;;40.47;23.27;;;;;;;;;;6294199;28;20424;-63
2023/05/26 06:27:20;;;;;;;36.40;22.73;;;;;;;;;;6295438;28;20050;-64
2023/05/26 06:30:21;;;;;;;40.22;23.80;;;;;;;;;;6295234;28;20040;-60
2023/05/26 06:33:21;;;;;;;37.35;22.77;;;;;;;;;;6294796;28;20041;-63
2023/05/26 06:36:22;;;;;;;38.45;23.48;;;;;;;;;;6294957;28;20057;-62
2023/05/26 06:39:24;;;;;;;41.42;23.17;;;;;;;;;;6296572;28;20043;-62
2023/05/26 06:42:25;;;;;;;;;;;;;;;;;;6301982;28;20507;-63
2023/05/26 06:45:25;;;;;;;37.42;22.85;;;;;;;;;;6304547;28;19928;-63
2023/05/26 06:48:26;;;;;;;38.97;22.98;;;;;;;;;;6306358;28;20041;-62
2023/05/26 06:51:27;;;;;;;40.25;23.33;;;;;;;;;;6307227;28;20150;-62
2023/05/26 06:54:27;;;;;;;39.78;23.88;;;;;;;;;;6300347;28;20040;-62
2023/05/26 06:57:28;;;;;;;37.42;23.67;;;;;;;;;;6300659;28;20486;-64
2023/05/26 07:00:30;;;;;;;38.85;22.65;;;;;;;;;;6308082;28;20044;-61
2023/05/26 07:03:31;;;;;;;34.13;21.77;;;;;;;;;;6307516;28;20413;-64
2023/05/26 07:06:32;;;;;;;34.92;21.90;;;;;;;;;;6314822;28;20051;-62
2023/05/26 07:09:32;;;;;;;39.80;23.57;;;;;;;;;;6299541;28;20359;-63
2023/05/26 07:12:33;;;;;;;38.38;22.35;;;;;;;;;;6285038;28;20074;-63
2023/05/26 07:15:34;;;;;;;36.42;21.90;;;;;;;;;;6295041;28;20037;-62
2023/05/26 07:18:34;;;;;;;31.40;20.08;;;;;;;;;;6293167;28;20564;-64
2023/05/26 07:21:35;;;;;;;30.98;19.63;;;;;;;;;;6295069;28;20470;-63
2023/05/26 07:24:36;;;;;;;29.55;19.95;;;;;;;;;;6304444;28;20044;-60
2023/05/26 07:27:36;;;;;;;32.92;20.83;;;;;;;;;;6297089;28;20131;-62
2023/05/26 07:30:37;;;;;;;30.60;19.73;;;;;;;;;;6298222;28;20066;-64
2023/05/26 07:33:37;;;;;;;31.83;19.75;;;;;;;;;;6313894;28;20071;-64
2023/05/26 07:36:38;;;;;;;29.50;18.60;;;;;;;;;;6304197;28;20040;-63
2023/05/26 07:39:39;;;;;;;28.67;18.45;;;;;;;;;;6297094;28;20040;-62
2023/05/26 07:42:39;;;;;;;29.10;19.25;;;;;;;;;;6295592;28;20045;-63
2023/05/26 07:45:40;;;;;;;29.70;18.30;;;;;;;;;;6297773;28;20414;-63
2023/05/26 07:48:40;;;;;;;32.22;19.10;;;;;;;;;;6299279;28;20044;-64
2023/05/26 07:51:41;;;;;;;27.58;17.45;;;;;;;;;;6299688;28;20063;-61
2023/05/26 07:54:42;;;;;;;24.27;16.60;;;;;;;;;;6299487;28;20448;-63
2023/05/26 07:57:43;;;;;;;26.17;17.75;;;;;;;;;;6307559;28;20191;-63
2023/05/26 08:00:43;;;;;;;26.95;17.90;;;;;;;;;;6298129;28;20036;-59
2023/05/26 08:03:44;;;;;;;26.40;17.92;;;;;;;;;;6297118;28;20044;-62
2023/05/26 08:06:44;;;;;;;26.83;17.13;;;;;;;;;;6298883;28;20093;-63
2023/05/26 08:09:45;;;;;;;25.90;17.42;;;;;;;;;;6304964;28;20055;-63
2023/05/26 08:12:46;;;;;;;28.85;18.50;;;;;;;;;;6309158;28;20056;-62
2023/05/26 08:15:46;;;;;;;26.30;16.40;;;;;;;;;;6298999;28;20135;-63
2023/05/26 08:18:47;;;;;;;25.98;15.95;;;;;;;;;;6316834;28;20044;-63
2023/05/26 08:21:48;;;;;;;30.98;18.83;;;;;;;;;;6299260;28;20052;-62
2023/05/26 08:24:48;;;;;;;25.90;18.45;;;;;;;;;;6296634;28;20044;-64
2023/05/26 08:27:49;;;;;;;30.90;17.55;;;;;;;;;;6295224;28;20048;-63
2023/05/26 08:30:50;;;;;;;28.23;18.58;;;;;;;;;;6298006;28;20111;-62
2023/05/26 08:33:51;;;;;;;24.80;15.57;;;;;;;;;;6298367;28;20048;-63
2023/05/26 08:36:51;;;;;;;27.83;17.90;;;;;;;;;;6298620;28;20591;-63
2023/05/26 08:39:52;;;;;;;27.90;17.47;;;;;;;;;;6306418;28;20089;-63
2023/05/26 08:42:56;;;;;;;25.80;16.83;;;;;;;;;;6298664;28;20067;-63
2023/05/26 08:46:00;;;;;;;23.58;15.55;;;;;;;;;;6295644;28;20048;-63
2023/05/26 08:49:01;;;;;;;22.05;15.60;;;;;;;;;;6278268;28;20036;-60
2023/05/26 08:52:08;;;;;;;22.73;15.25;;;;;;;;;;6295907;28;20050;-58
2023/05/26 08:55:09;;;;;;;25.08;16.92;;;;;;;;;;6295860;28;20083;-63
2023/05/26 08:58:11;;;;;;;22.80;16.38;;;;;;;;;;6299437;28;20482;-65
2023/05/26 09:01:11;;;;;;;27.27;18.33;;;;;;;;;;6296318;28;20105;-64
2023/05/26 09:04:12;;;;;;;27.80;18.00;;;;;;;;;;6296254;28;20048;-64
2023/05/26 09:07:12;;;;;;;24.93;16.40;;;;;;;;;;6298561;28;20040;-63
2023/05/26 09:10:20;;;;;;;28.47;19.83;;;;;;;;;;6297424;28;20052;-64
2023/05/26 09:13:21;;;;;;;26.83;17.77;;;;;;;;;;6298836;28;20037;-64
2023/05/26 09:16:27;;;;;;;20.23;14.80;;;;;;;;;;6296337;28;20063;-63
2023/05/26 09:19:28;;;;;;;26.48;16.20;;;;;;;;;;6284100;28;20052;-63
2023/05/26 09:22:32;;;;;;;25.17;15.87;;;;;;;;;;6281758;28;20048;-63
2023/05/26 09:25:35;;;;;;;18.63;12.88;;;;;;;;;;6287849;28;20386;-63
2023/05/26 09:28:35;;;;;;;19.48;12.80;;;;;;;;;;6278164;28;20096;-63
2023/05/26 09:31:51;;;;;;;18.57;11.23;;;;;;;;;;6277002;28;20040;-59
2023/05/26 09:34:55;;;;;;;18.30;11.90;;;;;;;;;;6281227;28;20055;-60
2023/05/26 09:37:55;;;;;;;20.95;12.23;;;;;;;;;;6279595;28;20055;-62
2023/05/26 09:40:56;;;;;;;19.43;12.37;;;;;;;;;;6274656;28;20068;-63
2023/05/26 09:44:14;;;;;;;15.53;10.93;;;;;;;;;;6281483;28;20478;-63
2023/05/26 09:47:20;;;;;;;19.10;12.32;;;;;;;;;;6279928;28;20055;-61
2023/05/26 09:50:21;;;;;;;16.80;10.57;;;;;;;;;;6279050;28;20052;-63
2023/05/26 09:53:21;;;;;;;14.95;9.50;;;;;;;;;;6280385;28;20459;-62
2023/05/26 09:56:26;;;;;;;15.67;9.90;;;;;;;;;;6279930;28;20090;-60
2023/05/26 09:59:38;;;;;;;16.17;10.00;;;;;;;;;;6275387;28;20065;-58
2023/05/26 10:02:40;;;;;;;17.73;11.27;;;;;;;;;;6280413;28;20059;-63
2023/05/26 10:05:45;;;;;;;;;;;;;;;;;;6282651;28;20212;-61
2023/05/26 10:08:50;;;;;;;13.18;9.65;;;;;;;;;;6281492;28;19955;-60
2023/05/26 10:11:54;;;;;;;16.30;8.15;;;;;;;;;;6277782;28;20052;-61
2023/05/26 10:14:55;;;;;;;13.93;8.32;;;;;;;;;;6281607;28;20051;-62
2023/05/26 10:17:58;;;;;;;14.18;9.60;;;;;;;;;;6278601;28;20729;-61
2023/05/26 10:21:05;;;;;;;13.38;8.82;;;;;;;;;;6277725;28;20531;-63
2023/05/26 10:24:44;;;;;;;13.60;7.70;;;;;;;;;;6280637;28;20060;-63
2023/05/26 10:28:12;;;;;;;14.50;8.30;;;;;;;;;;6212437;28;20436;-62
2023/05/26 10:31:28;;;;;;;14.45;8.82;;;;;;;;;;6217025;28;20054;-59
2023/05/26 10:34:38;;;;;;;14.90;9.32;;;;;;;;;;6280388;28;20056;-61
2023/05/26 10:37:39;;;;;;;15.20;9.73;;;;;;;;;;6279602;28;20044;-63
2023/05/26 10:40:43;;;;;;;17.13;9.90;;;;;;;;;;6275762;28;20098;-63
2023/05/26 10:43:44;;;;;;;17.27;10.60;;;;;;;;;;6280605;28;20101;-62
2023/05/26 10:46:45;;;;;;;18.37;11.27;;;;;;;;;;6279382;28;20570;-62
2023/05/26 10:49:59;;;;;;;15.10;10.95;;;;;;;;;;6279065;28;20209;-62
2023/05/26 10:53:00;;;;;;;18.23;11.82;;;;;;;;;;6279097;28;20044;-63
2023/05/26 10:56:05;;;;;;;18.50;11.88;;;;;;;;;;6281314;28;20053;-63
2023/05/26 10:59:06;;;;;;;19.67;11.68;;;;;;;;;;6278616;28;20064;-59
2023/05/26 11:02:07;;;;;;;14.07;9.50;;;;;;;;;;6280183;28;21323;-63
2023/05/26 11:05:28;;;;;;;17.37;9.80;;;;;;;;;;6285680;28;20048;-62
2023/05/26 11:08:49;;;;;;;15.27;10.35;;;;;;;;;;6284789;28;20045;-62
2023/05/26 11:11:52;;;;;;;15.40;10.25;;;;;;;;;;6280663;28;20414;-60
2023/05/26 11:14:52;;;;;;;15.93;11.80;;;;;;;;;;6284757;28;20432;-62
2023/05/26 11:17:55;;;;;;;19.83;11.93;;;;;;;;;;6285427;28;20055;-58
2023/05/26 11:20:58;;;;;;;17.52;12.00;;;;;;;;;;6281953;28;21117;-61
2023/05/26 11:23:59;;;;;;;15.75;10.95;;;;;;;;;;6287414;28;20834;-61
2023/05/26 11:27:01;;;;;;;13.82;10.13;;;;;;;;;;6285709;28;20174;-59
2023/05/26 11:30:01;;;;;;;;;;;;;;;;;;6281660;28;21389;-62
2023/05/26 11:33:10;;;;;;;14.82;7.82;;;;;;;;;;6283887;28;19929;-59
2023/05/26 11:36:14;;;;;;;13.50;8.52;;;;;;;;;;6284737;28;20048;-58
2023/05/26 11:39:15;;;;;;;11.63;8.20;;;;;;;;;;6283157;28;20041;-59
2023/05/26 11:42:16;;;;;;;15.73;8.10;;;;;;;;;;6282926;28;21538;-62
2023/05/26 11:45:17;;;;;;;18.70;8.50;;;;;;;;;;6282690;28;20051;-58
2023/05/26 11:48:17;;;;;;;15.13;8.73;;;;;;;;;;6281542;28;20075;-62
2023/05/26 11:51:20;;;;;;;15.77;8.00;;;;;;;;;;6282319;28;20536;-61
2023/05/26 11:54:20;;;;;;;12.45;8.13;;;;;;;;;;6283293;28;20200;-57
2023/05/26 11:57:25;;;;;;;13.37;7.73;;;;;;;;;;6286060;28;21149;-57
2023/05/26 12:00:26;;;;;;;14.23;7.60;;;;;;;;;;6281360;28;20082;-61
2023/05/26 12:03:27;;;;;;;14.10;8.07;;;;;;;;;;6280937;28;20143;-63
2023/05/26 12:06:32;;;;;;;12.93;7.53;;;;;;;;;;6284565;28;20086;-61
2023/05/26 12:09:33;;;;;;;12.23;7.40;;;;;;;;;;6282692;28;20052;-63
2023/05/26 12:12:50;;;;;;;13.43;7.53;;;;;;;;;;6282497;28;20459;-58
2023/05/26 12:15:52;;;;;;;17.52;8.38;;;;;;;;;;6285145;28;20047;-60
2023/05/26 12:18:54;;;;;;;15.57;7.47;;;;;;;;;;6284249;28;20122;-62
2023/05/26 12:22:02;;;;;;;13.15;7.65;;;;;;;;;;6281204;28;20040;-63
2023/05/26 12:25:02;;;;;;;12.15;7.97;;;;;;;;;;6286873;28;20147;-60
2023/05/26 12:28:03;;;;;;;14.37;7.50;;;;;;;;;;6285553;28;20056;-60
2023/05/26 12:31:03;;;;;;;14.50;7.77;;;;;;;;;;6281485;28;20472;-62
2023/05/26 12:34:04;;;;;;;12.30;7.43;;;;;;;;;;6283929;28;20056;-62
2023/05/26 12:37:05;;;;;;;11.13;7.53;;;;;;;;;;6280130;28;20058;-60
2023/05/26 12:40:07;;;;;;;13.43;7.60;;;;;;;;;;6282074;28;20052;-60
2023/05/26 12:43:07;;;;;;;15.40;7.32;;;;;;;;;;6281288;28;20316;-60
2023/05/26 12:46:08;;;;;;;12.90;7.70;;;;;;;;;;6281133;28;20076;-61
2023/05/26 12:49:09;;;;;;;11.93;7.10;;;;;;;;;;6280217;28;20044;-59
2023/05/26 12:52:10;;;;;;;13.70;7.50;;;;;;;;;;6278780;28;20051;-61
2023/05/26 12:55:10;;;;;;;13.60;7.60;;;;;;;;;;6281089;28;20423;-60
2023/05/26 12:58:11;;;;;;;14.20;7.10;;;;;;;;;;6281902;28;21452;-62
2023/05/26 13:01:13;;;;;;;13.73;7.07;;;;;;;;;;6279305;28;20044;-61
2023/05/26 13:04:14;;;;;;;12.45;6.82;;;;;;;;;;6282042;28;20507;-63
2023/05/26 13:07:15;;;;;;;16.77;7.33;;;;;;;;;;6281068;28;20056;-60
2023/05/26 13:10:16;;;;;;;10.30;6.60;;;;;;;;;;6279756;28;20102;-61
2023/05/26 13:13:17;;;;;;;12.70;6.70;;;;;;;;;;6281417;28;20059;-63
2023/05/26 13:16:18;;;;;;;12.02;6.45;;;;;;;;;;6283047;28;21177;-62
2023/05/26 13:19:19;;;;;;;15.05;7.28;;;;;;;;;;6278799;28;20048;-60
2023/05/26 13:22:20;;;;;;;9.90;6.35;;;;;;;;;;6281835;28;20576;-63
2023/05/26 13:25:21;;;;;;;11.30;6.80;;;;;;;;;;6281661;28;20048;-61
2023/05/26 13:28:22;;;;;;;13.02;6.95;;;;;;;;;;6283725;28;20446;-63
2023/05/26 13:31:23;;;;;;;12.90;7.40;;;;;;;;;;6275535;28;20098;-60
2023/05/26 13:34:24;;;;;;;15.40;7.07;;;;;;;;;;6278898;28;20102;-60
2023/05/26 13:37:24;;;;;;;14.40;7.30;;;;;;;;;;6281516;28;21312;-62
2023/05/26 13:40:25;;;;;;;17.63;7.60;;;;;;;;;;6277215;28;20040;-62
2023/05/26 13:43:26;;;;;;;15.70;7.77;;;;;;;;;;6281343;28;20461;-62
2023/05/26 13:46:26;;;;;;;14.13;6.90;;;;;;;;;;6282250;28;20083;-62
2023/05/26 13:49:27;;;;;;;10.57;6.53;;;;;;;;;;6278535;28;20056;-61
2023/05/26 13:52:29;;;;;;;12.57;6.83;;;;;;;;;;6280432;28;20054;-63
2023/05/26 13:55:30;;;;;;;;;;;;;;;;;;6283200;28;20534;-62
2023/05/26 13:58:30;;;;;;;10.60;6.68;;;;;;;;;;6281957;28;19931;-63
2023/05/26 14:01:31;;;;;;;11.17;6.80;;;;;;;;;;6276103;28;20486;-62
2023/05/26 14:04:32;;;;;;;13.33;7.23;;;;;;;;;;6278670;28;20040;-63
2023/05/26 14:07:34;;;;;;;12.75;7.07;;;;;;;;;;6282529;28;20132;-61
2023/05/26 14:10:34;;;;;;;12.93;6.87;;;;;;;;;;6277053;28;20415;-63
2023/05/26 14:13:35;;;;;;;16.33;7.30;;;;;;;;;;6280289;28;20036;-62
2023/05/26 14:16:35;;;;;;;14.07;7.20;;;;;;;;;;6280424;28;20131;-62
2023/05/26 14:19:36;;;;;;;13.33;7.10;;;;;;;;;;6277210;28;20575;-59
2023/05/26 14:22:37;;;;;;;12.57;7.13;;;;;;;;;;6276752;28;20733;-62
2023/05/26 14:25:37;;;;;;;15.63;7.17;;;;;;;;;;6280048;28;20479;-64
2023/05/26 14:28:38;;;;;;;16.50;6.90;;;;;;;;;;6277436;28;20051;-61
2023/05/26 14:31:39;;;;;;;16.80;7.70;;;;;;;;;;6279026;28;20059;-63
2023/05/26 14:34:39;;;;;;;13.30;6.90;;;;;;;;;;6281260;28;20144;-63
2023/05/26 14:37:40;;;;;;;12.77;6.87;;;;;;;;;;6284963;28;20194;-63
2023/05/26 14:40:41;;;;;;;13.03;7.00;;;;;;;;;;6283671;28;20048;-60
2023/05/26 14:43:42;;;;;;;14.33;6.93;;;;;;;;;;6282938;28;21386;-62
2023/05/26 14:46:42;;;;;;;15.40;7.90;;;;;;;;;;6284252;28;20606;-60
2023/05/26 14:49:43;;;;;;;14.70;7.00;;;;;;;;;;6283094;28;20309;-62
2023/05/26 14:52:43;;;;;;;15.17;6.97;;;;;;;;;;6271583;28;20588;-61
2023/05/26 14:55:44;;;;;;;12.10;7.50;;;;;;;;;;6283137;28;20074;-58
2023/05/26 14:58:45;;;;;;;16.13;7.27;;;;;;;;;;6284771;28;20040;-56
2023/05/26 15:01:45;;;;;;;15.03;6.87;;;;;;;;;;6286161;28;20048;-61
2023/05/26 15:04:46;;;;;;;14.43;7.10;;;;;;;;;;6285563;28;20126;-62
2023/05/26 15:07:49;;;;;;;14.53;6.80;;;;;;;;;;6286390;28;20052;-59
2023/05/26 15:10:49;;;;;;;13.27;6.95;;;;;;;;;;6269140;28;20044;-62
2023/05/26 15:13:50;;;;;;;15.43;6.87;;;;;;;;;;6287223;28;20746;-61
2023/05/26 15:16:51;;;;;;;13.13;6.40;;;;;;;;;;6287763;28;20047;-63
2023/05/26 15:19:51;;;;;;;13.33;6.40;;;;;;;;;;6280263;28;20040;-62
2023/05/26 15:22:52;;;;;;;12.97;6.17;;;;;;;;;;6283862;28;20117;-60
2023/05/26 15:25:53;;;;;;;12.13;6.30;;;;;;;;;;6283514;28;20045;-64
2023/05/26 15:28:54;;;;;;;17.00;6.53;;;;;;;;;;6287443;28;20056;-63
2023/05/26 15:31:55;;;;;;;10.07;6.10;;;;;;;;;;6282380;28;20068;-64
2023/05/26 15:34:55;;;;;;;13.17;6.13;;;;;;;;;;6285554;28;20419;-61
2023/05/26 15:37:56;;;;;;;12.03;5.93;;;;;;;;;;6286338;28;20393;-60
2023/05/26 15:40:56;;;;;;;11.60;6.17;;;;;;;;;;6283797;28;20495;-62
2023/05/26 15:43:57;;;;;;;13.47;5.97;;;;;;;;;;6284108;28;20052;-62
2023/05/26 15:46:58;;;;;;;14.43;5.87;;;;;;;;;;6284271;28;20052;-61
2023/05/26 15:50:00;;;;;;;11.50;6.23;;;;;;;;;;6277461;28;20056;-64
2023/05/26 15:53:00;;;;;;;15.07;6.25;;;;;;;;;;6278670;28;20056;-64
2023/05/26 15:56:01;;;;;;;12.43;5.57;;;;;;;;;;6282298;28;20404;-62
2023/05/26 15:59:02;;;;;;;11.38;5.22;;;;;;;;;;6281053;28;20040;-59
2023/05/26 16:02:03;;;;;;;11.50;5.10;;;;;;;;;;6279347;28;20053;-62
2023/05/26 16:05:04;;;;;;;11.13;5.30;;;;;;;;;;6282558;28;20053;-63
2023/05/26 16:08:05;;;;;;;12.77;4.87;;;;;;;;;;6285576;28;20052;-63
2023/05/26 16:11:05;;;;;;;12.10;5.37;;;;;;;;;;6276648;28;20044;-63
2023/05/26 16:14:06;;;;;;;12.47;4.60;;;;;;;;;;6284369;28;20064;-62
2023/05/26 16:17:07;;;;;;;8.50;4.20;;;;;;;;;;6283622;28;20052;-61
2023/05/26 16:20:07;;;;;;;13.97;4.70;;;;;;;;;;6281590;28;20063;-63
2023/05/26 16:23:09;;;;;;;10.75;4.55;;;;;;;;;;6280455;28;20467;-62
2023/05/26 16:26:09;;;;;;;7.87;4.10;;;;;;;;;;6280510;28;20135;-62
2023/05/26 16:29:10;;;;;;;10.20;4.57;;;;;;;;;;6279327;28;20542;-62
2023/05/26 16:32:11;;;;;;;8.63;3.93;;;;;;;;;;6278722;28;20056;-63
2023/05/26 16:35:12;;;;;;;12.73;3.97;;;;;;;;;;6279229;28;20044;-64
2023/05/26 16:38:12;;;;;;;6.47;3.80;;;;;;;;;;6281632;28;20415;-63
2023/05/26 16:41:13;;;;;;;10.07;4.27;;;;;;;;;;6278642;28;20049;-63
2023/05/26 16:44:14;;;;;;;11.27;3.90;;;;;;;;;;6283592;28;20094;-64
2023/05/26 16:47:15;;;;;;;9.18;3.90;;;;;;;;;;6284194;28;21241;-64
2023/05/26 16:50:15;;;;;;;11.47;4.10;;;;;;;;;;6261146;28;20048;-63
2023/05/26 16:53:16;;;;;;;10.07;3.93;;;;;;;;;;6282194;28;20056;-59
2023/05/26 16:56:17;;;;;;;10.83;3.90;;;;;;;;;;6280445;28;20526;-63
2023/05/26 16:59:18;;;;;;;8.83;3.37;;;;;;;;;;6277758;28;20072;-63
2023/05/26 17:02:18;;;;;;;10.33;3.80;;;;;;;;;;6279336;28;20474;-63
2023/05/26 17:05:19;;;;;;;8.67;3.33;;;;;;;;;;6283724;28;20058;-61
2023/05/26 17:08:20;;;;;;;11.77;4.13;;;;;;;;;;6282776;28;20051;-61
2023/05/26 17:11:21;;;;;;;13.53;3.73;;;;;;;;;;6280815;28;20799;-64
2023/05/26 17:14:22;;;;;;;15.43;4.60;;;;;;;;;;6283982;28;20047;-63
2023/05/26 17:17:23;;;;;;;13.93;3.85;;;;;;;;;;6280106;28;20130;-62
2023/05/26 17:20:24;;;;;;;12.47;5.13;;;;;;;;;;6262572;28;20058;-65
2023/05/26 17:23:26;;;;;;;10.80;4.00;;;;;;;;;;6278771;28;20514;-58
2023/05/26 17:26:26;;;;;;;9.43;4.00;;;;;;;;;;6279830;28;20044;-58
2023/05/26 17:29:27;;;;;;;11.93;4.37;;;;;;;;;;6268925;28;20052;-61
2023/05/26 17:32:28;;;;;;;11.50;4.03;;;;;;;;;;6278165;28;20171;-58
2023/05/26 17:35:30;;;;;;;9.23;3.85;;;;;;;;;;6276538;28;20059;-60
2023/05/26 17:38:33;;;;;;;;;;;;;;;;;;6275948;28;20741;-61
2023/05/26 17:41:35;;;;;;;12.32;4.05;;;;;;;;;;6275403;28;20084;-60
2023/05/26 17:44:36;;;;;;;11.57;4.00;;;;;;;;;;6277818;28;20052;-61
2023/05/26 17:47:36;;;;;;;11.70;4.13;;;;;;;;;;6279950;28;20056;-59
2023/05/26 17:50:37;;;;;;;11.33;3.80;;;;;;;;;;6278934;28;20464;-61